Uvalde, Texas
Current Conditions -  °F | °C
As of 6:15 PM on Wednesday 22 Oct 2014 (Local Time) from KUVA Reporting Station
Overcast Overcast  
Wind Chill: 81°   Ceiling: 10000
Heat Index: 81°   Visibility: 10mi
Dew Point: 54°   Wind: 6mph
Humidity: 39%   Direction: 120°ESE
Pressure: 30.05"   Gusts: NA
Location:  29.21°N, 99.79°W
Report Text: KUVA 222315Z AUTO 12005KT 10SM OVC100 27/12 A3005 RMK AO2 T02700120
Loading
Personal Weather Stations






























Interactive Weather Map
Tropical Storm Tracking
New forecast layout! Learn more

10-Day Weather Forecast

Advertisements
Track Severe Weather on mobile